createdAt,value
2019-05-22T00:01:33.176Z,21.33
2019-05-22T00:04:05.992Z,21.73
2019-05-22T00:06:37.997Z,19.82
2019-05-22T00:09:10.435Z,27.70
2019-05-22T00:11:43.377Z,22.98
2019-05-22T00:14:15.726Z,29.18
2019-05-22T00:16:47.394Z,28.57
2019-05-22T00:19:19.111Z,28.45
2019-05-22T00:21:52.356Z,24.52
2019-05-22T00:24:25.491Z,24.27
2019-05-22T00:26:56.262Z,23.85
2019-05-22T00:29:28.950Z,21.82
2019-05-22T00:31:59.302Z,22.02
2019-05-22T00:34:31.445Z,31.87
2019-05-22T00:37:02.261Z,24.00
2019-05-22T00:39:33.115Z,20.75
2019-05-22T00:42:06.305Z,31.60
2019-05-22T00:44:37.646Z,31.70
2019-05-22T00:47:09.661Z,23.07
2019-05-22T00:49:41.059Z,27.55
2019-05-22T00:52:25.073Z,24.35
2019-05-22T00:55:05.854Z,30.65
2019-05-22T00:57:38.224Z,30.90
2019-05-22T01:00:20.645Z,25.30
2019-05-22T01:02:52.399Z,23.32
2019-05-22T01:05:23.582Z,24.00
2019-05-22T01:07:55.265Z,24.37
2019-05-22T01:10:27.004Z,19.70
2019-05-22T01:13:02.300Z,23.12
2019-05-22T01:15:33.277Z,22.40
2019-05-22T01:18:07.257Z,22.45
2019-05-22T01:20:40.709Z,20.72
2019-05-22T01:25:46.030Z,18.12
2019-05-22T01:28:17.487Z,21.62
2019-05-22T01:30:50.706Z,19.20
2019-05-22T01:33:22.930Z,23.42
2019-05-22T01:36:02.027Z,19.45
2019-05-22T01:38:34.646Z,20.80
2019-05-22T01:41:18.219Z,22.00
2019-05-22T01:43:51.150Z,20.40
2019-05-22T01:46:22.234Z,20.25
2019-05-22T01:48:55.840Z,20.57
2019-05-22T01:51:26.021Z,20.48
2019-05-22T01:53:57.470Z,20.62
2019-05-22T01:56:30.016Z,21.15
2019-05-22T01:59:00.496Z,21.50
2019-05-22T02:01:32.466Z,20.95
2019-05-22T02:04:04.791Z,20.23
2019-05-22T02:06:36.719Z,19.55
2019-05-22T02:09:14.567Z,20.43
2019-05-22T02:11:46.541Z,21.25
2019-05-22T02:14:18.511Z,20.02
2019-05-22T02:16:56.603Z,21.20
2019-05-22T02:19:21.086Z,21.73
2019-05-22T02:21:52.151Z,20.72
2019-05-22T02:24:23.097Z,21.80
2019-05-22T02:26:53.563Z,20.12
2019-05-22T02:29:23.942Z,17.73
2019-05-22T02:31:56.404Z,19.62
2019-05-22T02:34:28.816Z,19.32
2019-05-22T02:37:00.087Z,20.80
2019-05-22T02:39:32.309Z,19.25
2019-05-22T02:42:06.619Z,19.02
2019-05-22T02:44:38.285Z,19.60
2019-05-22T02:47:19.006Z,19.30
2019-05-22T02:49:42.362Z,18.50
2019-05-22T02:52:13.028Z,18.70
2019-05-22T02:54:43.599Z,18.80
2019-05-22T02:57:13.925Z,18.42
2019-05-22T02:59:44.024Z,17.37
2019-05-22T03:02:16.135Z,17.45
2019-05-22T03:05:07.364Z,19.02
2019-05-22T03:07:39.711Z,16.65
2019-05-22T03:10:12.930Z,18.10
2019-05-22T03:12:46.142Z,15.88
2019-05-22T03:15:18.093Z,20.12
2019-05-22T03:17:51.406Z,16.10
2019-05-22T03:20:23.880Z,18.67
2019-05-22T03:23:18.566Z,24.12
2019-05-22T03:25:48.782Z,18.02
2019-05-22T03:28:19.293Z,15.88
2019-05-22T03:30:50.512Z,20.52
2019-05-22T03:33:21.189Z,20.82
2019-05-22T03:35:54.689Z,24.87
2019-05-22T03:40:54.887Z,20.57
2019-05-22T03:43:28.576Z,20.30
2019-05-22T03:46:03.066Z,21.33
2019-05-22T03:48:37.817Z,21.93
2019-05-22T03:51:14.470Z,19.40
2019-05-22T03:53:46.576Z,19.87
2019-05-22T03:56:18.797Z,19.37
2019-05-22T03:58:48.933Z,19.40
2019-05-22T04:01:19.916Z,23.27
2019-05-22T04:03:50.556Z,20.92
2019-05-22T04:06:22.811Z,27.22
2019-05-22T04:08:54.508Z,20.45
2019-05-22T04:11:27.891Z,22.55
2019-05-22T04:13:58.388Z,22.70
2019-05-22T04:16:29.262Z,23.70
2019-05-22T04:19:00.739Z,23.77
2019-05-22T04:21:31.551Z,21.77
2019-05-22T04:24:02.100Z,23.80
2019-05-22T04:26:33.776Z,28.38
2019-05-22T04:29:05.441Z,22.82
2019-05-22T04:31:48.859Z,22.20
2019-05-22T04:34:20.934Z,24.05
2019-05-22T04:36:51.609Z,25.82
2019-05-22T04:39:24.578Z,24.37
2019-05-22T04:41:56.538Z,24.27
2019-05-22T04:44:28.118Z,22.30
2019-05-22T04:46:58.251Z,21.50
2019-05-22T04:49:28.432Z,20.00
2019-05-22T04:51:58.540Z,21.12
2019-05-22T04:54:29.042Z,25.12
2019-05-22T04:56:59.254Z,25.77
2019-05-22T04:59:30.412Z,25.02
2019-05-22T05:02:02.043Z,24.00
2019-05-22T05:04:32.321Z,21.68
2019-05-22T05:07:03.031Z,21.10
2019-05-22T05:09:33.849Z,22.05
2019-05-22T05:12:05.706Z,24.20
2019-05-22T05:14:36.253Z,22.30
2019-05-22T05:17:07.457Z,21.15
2019-05-22T05:19:37.514Z,21.85
2019-05-22T05:22:07.622Z,24.32
2019-05-22T05:24:37.750Z,23.62
2019-05-22T05:27:08.465Z,22.48
2019-05-22T05:29:38.655Z,21.95
2019-05-22T05:32:10.334Z,21.50
2019-05-22T05:34:46.397Z,23.02
2019-05-22T05:37:19.274Z,21.77
2019-05-22T05:39:55.091Z,23.40
2019-05-22T05:42:25.554Z,26.00
2019-05-22T05:44:55.613Z,24.25
2019-05-22T05:47:25.991Z,25.08
2019-05-22T05:49:56.506Z,26.23
2019-05-22T05:52:28.793Z,23.70
2019-05-22T05:55:00.373Z,27.87
2019-05-22T05:57:36.808Z,28.17
2019-05-22T06:00:11.519Z,24.35
2019-05-22T06:02:55.707Z,25.95
2019-05-22T06:05:14.312Z,24.52
2019-05-22T06:07:44.602Z,27.48
2019-05-22T06:10:30.124Z,26.23
2019-05-22T06:13:02.101Z,25.55
2019-05-22T06:15:47.443Z,26.15
2019-05-22T06:18:31.910Z,26.97
2019-05-22T06:21:04.515Z,24.80
2019-05-22T06:23:44.309Z,26.75
2019-05-22T06:26:26.874Z,24.02
2019-05-22T06:28:57.486Z,30.60
2019-05-22T06:31:40.530Z,28.67
2019-05-22T06:34:10.827Z,30.52
2019-05-22T06:36:42.723Z,31.87
2019-05-22T06:39:14.230Z,28.27
2019-05-22T06:41:45.393Z,28.73
2019-05-22T06:44:29.147Z,32.23
2019-05-22T06:49:34.721Z,41.80
2019-05-22T06:52:08.067Z,43.63
2019-05-22T06:54:39.057Z,42.13
2019-05-22T06:57:12.329Z,37.78
2019-05-22T06:59:43.618Z,39.15
2019-05-22T07:02:15.356Z,38.73
2019-05-22T07:04:46.364Z,41.98
2019-05-22T07:07:17.529Z,39.30
2019-05-22T07:09:47.970Z,39.03
2019-05-22T07:12:21.159Z,40.78
2019-05-22T07:15:04.470Z,38.60
2019-05-22T07:17:37.519Z,35.70
2019-05-22T07:20:08.806Z,38.02
2019-05-22T07:22:39.266Z,37.60
2019-05-22T07:25:09.619Z,37.53
2019-05-22T07:27:40.003Z,40.95
2019-05-22T07:30:10.518Z,40.38
2019-05-22T07:32:40.898Z,40.45
2019-05-22T07:35:12.246Z,39.50
2019-05-22T07:37:45.252Z,40.08
2019-05-22T07:40:16.121Z,38.17
2019-05-22T07:42:46.249Z,41.88
2019-05-22T07:45:16.646Z,39.88
2019-05-22T07:47:48.352Z,38.38
2019-05-22T07:50:19.361Z,42.15
2019-05-22T07:52:50.718Z,41.58
2019-05-22T07:55:23.185Z,43.58
2019-05-22T07:58:05.200Z,41.95
2019-05-22T08:00:35.947Z,41.98
2019-05-22T08:03:08.183Z,41.50
2019-05-22T08:05:41.528Z,40.05
2019-05-22T08:08:13.378Z,40.95
2019-05-22T08:10:44.442Z,41.77
2019-05-22T08:13:15.341Z,41.48
2019-05-22T08:15:47.856Z,36.88
2019-05-22T08:18:17.662Z,41.90
2019-05-22T08:20:48.042Z,37.45
2019-05-22T08:23:18.944Z,42.00
2019-05-22T08:25:49.137Z,33.53
2019-05-22T08:28:21.378Z,33.40
2019-05-22T08:30:52.968Z,33.00
2019-05-22T08:33:24.523Z,32.45
2019-05-22T08:35:55.621Z,35.50
2019-05-22T08:38:31.208Z,32.70
2019-05-22T08:41:04.131Z,35.55
2019-05-22T08:43:56.115Z,30.05
2019-05-22T08:46:07.213Z,33.00
2019-05-22T08:48:42.326Z,29.10
2019-05-22T08:51:11.438Z,25.80
2019-05-22T08:53:47.382Z,26.52
2019-05-22T08:56:14.818Z,27.95
2019-05-22T08:58:46.461Z,29.18
2019-05-22T09:01:17.372Z,24.65
2019-05-22T09:03:47.954Z,28.75
2019-05-22T09:06:18.431Z,27.25
2019-05-22T09:08:49.201Z,29.27
2019-05-22T09:11:19.489Z,27.50
2019-05-22T09:13:49.703Z,24.95
2019-05-22T09:16:20.250Z,25.72
2019-05-22T09:18:50.426Z,27.35
2019-05-22T09:21:20.878Z,20.10
2019-05-22T09:23:50.933Z,17.85
2019-05-22T09:26:23.181Z,19.57
2019-05-22T09:28:53.575Z,16.45
2019-05-22T09:31:24.059Z,13.62
2019-05-22T09:33:54.705Z,12.23
2019-05-22T09:36:24.940Z,12.88
2019-05-22T09:38:55.350Z,13.78
2019-05-22T09:41:25.885Z,14.50
2019-05-22T09:43:56.210Z,9.88
2019-05-22T09:46:27.691Z,9.88
2019-05-22T09:48:58.175Z,6.17
2019-05-22T09:51:28.450Z,6.40
2019-05-22T09:53:59.360Z,6.58
2019-05-22T09:56:29.481Z,7.65
2019-05-22T09:58:59.954Z,6.80
2019-05-22T10:01:30.080Z,7.15
2019-05-22T10:04:00.923Z,6.85
2019-05-22T10:06:31.026Z,7.72
2019-05-22T10:09:01.133Z,6.45
2019-05-22T10:11:33.770Z,6.08
2019-05-22T10:14:05.713Z,6.30
2019-05-22T10:16:35.747Z,5.78
2019-05-22T10:19:06.418Z,5.35
2019-05-22T10:21:37.490Z,6.45
2019-05-22T10:24:08.074Z,5.87
2019-05-22T10:26:38.116Z,6.25
2019-05-22T10:29:09.389Z,6.87
2019-05-22T10:31:39.893Z,6.58
2019-05-22T10:34:10.015Z,7.08
2019-05-22T10:36:43.100Z,6.55
2019-05-22T10:39:12.324Z,6.50
2019-05-22T10:41:42.650Z,7.75
2019-05-22T10:44:13.117Z,7.67
2019-05-22T10:46:44.262Z,7.60
2019-05-22T10:49:14.871Z,7.42
2019-05-22T10:51:45.475Z,7.22
2019-05-22T10:54:16.469Z,6.78
2019-05-22T10:56:46.714Z,9.98
2019-05-22T10:59:16.835Z,8.88
2019-05-22T11:01:47.314Z,8.43
2019-05-22T11:04:19.723Z,8.60
2019-05-22T11:06:51.030Z,9.30
2019-05-22T11:09:22.283Z,9.40
2019-05-22T11:11:53.231Z,9.25
2019-05-22T11:14:23.759Z,10.40
2019-05-22T11:16:54.459Z,9.95
2019-05-22T11:19:24.859Z,9.55
2019-05-22T11:21:57.134Z,8.80
2019-05-22T11:24:27.800Z,9.20
2019-05-22T11:26:58.002Z,9.65
2019-05-22T11:29:28.864Z,10.40
2019-05-22T11:31:59.047Z,8.90
2019-05-22T11:34:29.205Z,8.05
2019-05-22T11:37:00.530Z,8.28
2019-05-22T11:39:39.678Z,7.55
2019-05-22T11:42:03.025Z,7.87
2019-05-22T11:44:33.124Z,6.90
2019-05-22T11:47:03.900Z,8.60
2019-05-22T11:49:34.341Z,7.87
2019-05-22T11:52:05.726Z,7.60
2019-05-22T11:54:36.298Z,7.67
2019-05-22T11:57:06.330Z,8.45
2019-05-22T11:59:37.143Z,7.10
2019-05-22T12:02:09.438Z,8.88
2019-05-22T12:04:47.829Z,8.75
2019-05-22T12:07:13.078Z,9.43
2019-05-22T12:09:43.650Z,8.18
2019-05-22T12:12:14.136Z,7.67
2019-05-22T12:14:44.237Z,8.05
2019-05-22T12:17:14.980Z,6.92
2019-05-22T12:19:46.278Z,8.28
2019-05-22T12:22:19.835Z,7.40
2019-05-22T12:24:48.785Z,9.03
2019-05-22T12:27:19.487Z,8.70
2019-05-22T12:29:50.166Z,8.33
2019-05-22T12:32:20.609Z,7.10
2019-05-22T12:34:50.787Z,8.75
2019-05-22T12:37:21.597Z,9.50
2019-05-22T12:39:52.719Z,9.23
2019-05-22T12:42:24.193Z,8.73
2019-05-22T12:44:54.651Z,8.58
2019-05-22T12:47:25.991Z,9.15
2019-05-22T12:49:56.551Z,7.95
2019-05-22T12:52:26.650Z,8.63
2019-05-22T12:54:57.046Z,9.08
2019-05-22T12:57:27.234Z,8.88
2019-05-22T13:00:02.186Z,8.03
2019-05-22T13:02:31.407Z,10.78
2019-05-22T13:05:01.852Z,8.50
2019-05-22T13:07:31.903Z,8.30
2019-05-22T13:10:03.380Z,9.68
2019-05-22T13:12:34.483Z,8.60
2019-05-22T13:15:10.247Z,9.13
2019-05-22T13:17:39.167Z,9.95
2019-05-22T13:20:10.814Z,9.80
2019-05-22T13:22:45.477Z,11.53
2019-05-22T13:25:18.386Z,9.83
2019-05-22T13:27:51.248Z,10.23
2019-05-22T13:30:28.236Z,9.05
2019-05-22T13:32:57.166Z,10.23
2019-05-22T13:35:29.352Z,12.43
2019-05-22T13:37:59.658Z,10.98
2019-05-22T13:40:30.510Z,11.22
2019-05-22T13:43:01.506Z,13.78
2019-05-22T13:45:33.082Z,11.80
2019-05-22T13:48:05.107Z,11.07
2019-05-22T13:50:35.538Z,9.90
2019-05-22T13:53:08.512Z,9.95
2019-05-22T13:55:38.793Z,11.65
2019-05-22T13:58:11.152Z,11.80
2019-05-22T14:00:41.948Z,10.78
2019-05-22T14:03:12.533Z,12.35
2019-05-22T14:05:43.489Z,11.85
2019-05-22T14:08:14.450Z,11.50
2019-05-22T14:11:04.684Z,12.68
2019-05-22T14:13:35.531Z,10.72
2019-05-22T14:16:06.087Z,11.68
2019-05-22T14:18:36.397Z,12.00
2019-05-22T14:21:06.592Z,12.93
2019-05-22T14:23:37.291Z,10.38
2019-05-22T14:26:07.469Z,11.60
2019-05-22T14:28:38.027Z,11.80
2019-05-22T14:31:08.202Z,10.63
2019-05-22T14:33:40.543Z,10.00
2019-05-22T14:36:11.008Z,9.48
2019-05-22T14:38:41.692Z,10.80
2019-05-22T14:41:12.094Z,11.95
2019-05-22T14:43:42.346Z,10.70
2019-05-22T14:46:12.940Z,10.82
2019-05-22T14:48:43.155Z,8.90
2019-05-22T14:51:14.119Z,10.32
2019-05-22T14:53:46.070Z,10.35
2019-05-22T14:56:16.782Z,10.10
2019-05-22T14:58:47.195Z,10.08
2019-05-22T15:01:17.454Z,10.25
2019-05-22T15:03:47.633Z,9.78
2019-05-22T15:06:17.743Z,9.68
2019-05-22T15:08:47.922Z,10.95
2019-05-22T15:11:18.105Z,10.63
2019-05-22T15:13:48.559Z,11.83
2019-05-22T15:16:18.778Z,9.78
2019-05-22T15:18:48.945Z,11.38
2019-05-22T15:21:20.237Z,12.35
2019-05-22T15:23:51.090Z,11.57
2019-05-22T15:26:21.997Z,13.55
2019-05-22T15:28:52.255Z,12.90
2019-05-22T15:31:22.851Z,13.03
2019-05-22T15:33:53.204Z,13.20
2019-05-22T15:36:24.169Z,13.40
2019-05-22T15:38:54.877Z,12.35
2019-05-22T15:41:26.718Z,11.68
2019-05-22T15:43:57.744Z,10.30
2019-05-22T15:46:28.784Z,10.95
2019-05-22T15:48:59.827Z,10.48
2019-05-22T15:51:32.539Z,9.90
2019-05-22T15:54:06.679Z,10.60
2019-05-22T15:56:38.087Z,10.43
2019-05-22T15:59:10.205Z,10.03
2019-05-22T16:01:41.596Z,9.18
2019-05-22T16:04:15.126Z,10.23
2019-05-22T16:06:46.315Z,9.25
2019-05-22T16:09:18.081Z,9.00
2019-05-22T16:11:51.592Z,9.40
2019-05-22T16:14:22.165Z,10.08
2019-05-22T16:16:53.037Z,10.80
2019-05-22T16:19:25.661Z,10.53
2019-05-22T16:21:58.822Z,9.07
2019-05-22T16:24:29.679Z,9.63
2019-05-22T16:27:00.883Z,10.68
2019-05-22T16:29:31.820Z,9.23
2019-05-22T16:32:04.389Z,11.22
2019-05-22T16:34:35.677Z,9.57
2019-05-22T16:37:06.516Z,9.38
2019-05-22T16:39:40.110Z,10.32
2019-05-22T16:42:10.955Z,9.33
2019-05-22T16:44:42.401Z,8.18
2019-05-22T16:47:13.648Z,9.13
2019-05-22T16:49:45.503Z,8.95
2019-05-22T16:52:16.515Z,8.25
2019-05-22T16:54:47.559Z,8.23
2019-05-22T16:57:17.582Z,9.08
2019-05-22T16:59:48.031Z,10.88
2019-05-22T17:02:19.005Z,9.50
2019-05-22T17:04:49.284Z,8.13
2019-05-22T17:07:20.232Z,8.15
2019-05-22T17:09:51.698Z,8.18
2019-05-22T17:12:23.445Z,7.15
2019-05-22T17:14:54.617Z,7.25
2019-05-22T17:17:24.686Z,8.80
2019-05-22T17:19:55.135Z,7.35
2019-05-22T17:22:26.398Z,8.33
2019-05-22T17:24:57.573Z,8.23
2019-05-22T17:27:29.044Z,7.85
2019-05-22T17:30:00.707Z,7.00
2019-05-22T17:32:30.957Z,8.15
2019-05-22T17:35:01.776Z,7.37
2019-05-22T17:37:33.961Z,7.00
2019-05-22T17:40:07.195Z,7.28
2019-05-22T17:42:38.493Z,7.15
2019-05-22T17:45:11.959Z,8.80
2019-05-22T17:47:43.243Z,8.28
2019-05-22T17:50:26.056Z,7.80
2019-05-22T17:52:49.069Z,8.03
2019-05-22T17:55:20.950Z,9.10
2019-05-22T17:57:51.126Z,8.65
2019-05-22T18:00:23.554Z,7.50
2019-05-22T18:02:53.749Z,5.95
2019-05-22T18:05:25.874Z,6.70
2019-05-22T18:07:56.674Z,5.85
2019-05-22T18:10:28.526Z,6.17
2019-05-22T18:12:58.654Z,5.20
2019-05-22T18:15:29.328Z,4.05
2019-05-22T18:17:59.531Z,2.95
2019-05-22T18:20:42.279Z,3.45
2019-05-22T18:23:02.291Z,2.42
2019-05-22T18:25:32.923Z,2.50
2019-05-22T18:28:04.992Z,2.52
2019-05-22T18:30:45.421Z,3.40
2019-05-22T18:33:16.534Z,2.80
2019-05-22T18:35:46.797Z,3.08
2019-05-22T18:38:17.275Z,3.33
2019-05-22T18:40:47.396Z,2.83
2019-05-22T18:43:19.011Z,2.90
2019-05-22T18:45:49.855Z,2.52
2019-05-22T18:48:19.893Z,2.83
2019-05-22T18:50:50.608Z,3.42
2019-05-22T18:53:21.261Z,3.22
2019-05-22T18:55:51.614Z,3.12
2019-05-22T18:58:21.715Z,2.90
2019-05-22T19:00:51.803Z,3.05
2019-05-22T19:03:22.890Z,3.60
2019-05-22T19:05:53.458Z,4.05
2019-05-22T19:08:24.849Z,3.15
2019-05-22T19:10:55.482Z,3.65
2019-05-22T19:13:26.122Z,3.72
2019-05-22T19:15:56.220Z,3.95
2019-05-22T19:18:27.785Z,3.42
2019-05-22T19:20:58.031Z,4.42
2019-05-22T19:23:28.567Z,3.00
2019-05-22T19:25:58.706Z,3.00
2019-05-22T19:28:42.811Z,3.25
2019-05-22T19:31:01.542Z,2.47
2019-05-22T19:33:31.734Z,2.80
2019-05-22T19:36:01.843Z,3.80
2019-05-22T19:38:32.108Z,3.27
2019-05-22T19:41:02.744Z,3.52
2019-05-22T19:43:33.425Z,2.85
2019-05-22T19:46:03.933Z,3.77
2019-05-22T19:48:34.028Z,4.00
2019-05-22T19:51:04.965Z,4.15
2019-05-22T19:53:35.643Z,3.65
2019-05-22T19:56:06.558Z,4.03
2019-05-22T19:58:37.791Z,3.98
2019-05-22T20:01:08.243Z,4.45
2019-05-22T20:03:38.641Z,4.58
2019-05-22T20:06:09.328Z,4.72
2019-05-22T20:08:40.946Z,3.92
2019-05-22T20:11:11.113Z,4.80
2019-05-22T20:13:41.488Z,4.53
2019-05-22T20:16:11.661Z,4.90
2019-05-22T20:18:42.003Z,5.55
2019-05-22T20:21:12.111Z,5.22
2019-05-22T20:23:43.375Z,5.83
2019-05-22T20:26:13.545Z,7.45
2019-05-22T20:28:43.655Z,5.12
2019-05-22T20:31:14.409Z,5.97
2019-05-22T20:33:44.902Z,6.30
2019-05-22T20:36:15.433Z,5.58
2019-05-22T20:38:45.774Z,6.62
2019-05-22T20:41:16.152Z,6.67
2019-05-22T20:43:48.198Z,7.12
2019-05-22T20:46:21.965Z,6.67
2019-05-22T20:48:52.787Z,7.15
2019-05-22T20:51:23.460Z,7.35
2019-05-22T20:53:55.054Z,6.65
2019-05-22T20:56:27.728Z,7.22
2019-05-22T20:58:59.381Z,8.20
2019-05-22T21:01:30.326Z,7.33
2019-05-22T21:04:04.614Z,7.83
2019-05-22T21:06:44.430Z,9.60
2019-05-22T21:09:14.685Z,8.65
2019-05-22T21:11:45.271Z,8.35
2019-05-22T21:14:15.609Z,9.28
2019-05-22T21:16:46.826Z,9.35
2019-05-22T21:19:17.025Z,10.95
2019-05-22T21:21:48.466Z,9.70
2019-05-22T21:24:18.881Z,10.90
2019-05-22T21:26:49.010Z,9.80
2019-05-22T21:29:20.012Z,8.90
2019-05-22T21:31:50.590Z,9.23
2019-05-22T21:34:21.501Z,10.58
2019-05-22T21:36:51.676Z,9.63
2019-05-22T21:39:21.890Z,9.88
2019-05-22T21:41:53.146Z,9.50
2019-05-22T21:44:23.688Z,9.75
2019-05-22T21:46:54.626Z,11.20
2019-05-22T21:49:26.075Z,10.55
2019-05-22T21:51:56.205Z,11.63
2019-05-22T21:54:26.398Z,11.48
2019-05-22T21:56:56.503Z,10.78
2019-05-22T21:59:26.853Z,10.50
2019-05-22T22:01:58.991Z,11.88
2019-05-22T22:04:32.018Z,12.50
2019-05-22T22:07:04.064Z,13.38
2019-05-22T22:09:34.185Z,14.68
2019-05-22T22:12:08.179Z,16.40
2019-05-22T22:14:38.290Z,16.60
2019-05-22T22:17:10.370Z,18.37
2019-05-22T22:19:41.078Z,16.15
2019-05-22T22:22:14.266Z,15.43
2019-05-22T22:24:44.857Z,16.80
2019-05-22T22:27:15.021Z,13.35
2019-05-22T22:29:45.292Z,12.73
2019-05-22T22:32:16.853Z,12.07
2019-05-22T22:34:49.987Z,13.45
2019-05-22T22:37:21.405Z,10.48
2019-05-22T22:39:54.812Z,11.00
2019-05-22T22:42:29.281Z,12.75
2019-05-22T22:45:03.674Z,12.18
2019-05-22T22:47:36.514Z,12.30
2019-05-22T22:50:08.487Z,14.45
2019-05-22T22:52:40.306Z,11.50
2019-05-22T22:55:14.354Z,10.88
2019-05-22T22:57:47.016Z,11.80
2019-05-22T23:00:19.636Z,13.43
2019-05-22T23:02:50.684Z,11.50
2019-05-22T23:05:21.274Z,11.30
2019-05-22T23:07:51.681Z,10.85
2019-05-22T23:10:23.116Z,12.33
2019-05-22T23:12:55.076Z,11.70
2019-05-22T23:15:26.805Z,10.90
2019-05-22T23:17:58.201Z,11.90
2019-05-22T23:20:27.525Z,10.85
2019-05-22T23:22:57.457Z,12.70
2019-05-22T23:25:27.914Z,9.78
2019-05-22T23:27:57.954Z,10.50
2019-05-22T23:30:29.260Z,9.33
2019-05-22T23:32:59.818Z,11.48
2019-05-22T23:35:31.468Z,10.70
2019-05-22T23:38:03.478Z,10.90
2019-05-22T23:40:36.437Z,11.45
2019-05-22T23:43:07.725Z,11.10
2019-05-22T23:45:37.846Z,11.10
2019-05-22T23:48:11.716Z,12.73
2019-05-22T23:50:43.370Z,10.60
2019-05-22T23:53:13.708Z,10.28
2019-05-22T23:55:44.003Z,10.35
2019-05-22T23:58:16.116Z,9.08
